createdAt,value
2018-09-01T00:00:26.996Z,13.2
2018-09-01T00:02:24.981Z,13.1
2018-09-01T00:03:24.127Z,13.1
2018-09-01T00:04:23.833Z,13.2
2018-09-01T00:05:22.930Z,13.2
2018-09-01T00:06:22.349Z,13.2
2018-09-01T00:07:21.567Z,13.2
2018-09-01T00:08:20.280Z,13.2
2018-09-01T00:09:19.378Z,13.2
2018-09-01T00:10:19.296Z,13.1
2018-09-01T00:10:49.534Z,13.1
2018-09-01T00:12:17.313Z,13.2
2018-09-01T00:13:16.622Z,13.2
2018-09-01T00:14:15.831Z,13.2
2018-09-01T00:15:15.143Z,13.2
2018-09-01T00:16:14.456Z,13.2
2018-09-01T00:17:13.882Z,13.2
2018-09-01T00:18:12.581Z,13.2
2018-09-01T00:20:11.078Z,13.2
2018-09-01T00:20:41.714Z,13.2
2018-09-01T00:21:12.445Z,13.2
2018-09-01T00:22:09.742Z,13.2
2018-09-01T00:23:09.055Z,13.3
2018-09-01T00:24:08.255Z,13.3
2018-09-01T00:25:07.568Z,13.3
2018-09-01T00:26:06.779Z,13.3
2018-09-01T00:27:05.585Z,13.3
2018-09-01T00:28:05.006Z,13.4
2018-09-01T00:29:04.325Z,13.3
2018-09-01T00:30:03.522Z,13.3
2018-09-01T00:31:02.724Z,13.3
2018-09-01T00:32:02.143Z,13.3
2018-09-01T00:33:01.348Z,13.3
2018-09-01T00:34:00.455Z,13.3
2018-09-01T00:34:59.552Z,13.4
2018-09-01T00:35:58.651Z,13.4
2018-09-01T00:37:57.245Z,13.4
2018-09-01T00:38:56.463Z,13.4
2018-09-01T00:39:55.566Z,13.4
2018-09-01T00:41:54.271Z,13.4
2018-09-01T00:42:53.473Z,13.4
2018-09-01T00:43:52.687Z,13.4
2018-09-01T00:44:51.897Z,13.4
2018-09-01T00:45:51.098Z,13.4
2018-09-01T00:46:50.513Z,13.4
2018-09-01T00:47:49.434Z,13.4
2018-09-01T00:49:48.024Z,13.3
2018-09-01T00:50:47.439Z,13.3
2018-09-01T00:51:46.139Z,13.3
2018-09-01T00:52:45.453Z,13.3
2018-09-01T00:53:44.883Z,13.3
2018-09-01T00:54:44.080Z,13.3
2018-09-01T00:55:43.294Z,13.3
2018-09-01T00:56:42.500Z,13.3
2018-09-01T00:57:41.712Z,13.3
2018-09-01T00:58:40.919Z,13.3
2018-09-01T00:59:40.130Z,13.2
2018-09-01T01:00:39.235Z,13.3
2018-09-01T01:01:38.547Z,13.2
2018-09-01T01:02:37.696Z,13.2
2018-09-01T01:03:37.113Z,13.2
2018-09-01T01:04:36.214Z,13.2
2018-09-01T01:05:06.959Z,13.2
2018-09-01T01:05:36.977Z,13.2
2018-09-01T01:06:07.608Z,13.2
2018-09-01T01:06:38.237Z,13.2
2018-09-01T01:07:34.139Z,13.2
2018-09-01T01:08:33.563Z,13.2
2018-09-01T01:09:32.369Z,13.2
2018-09-01T01:10:31.678Z,13.2
2018-09-01T01:11:31.110Z,13.2
2018-09-01T01:12:30.550Z,13.2
2018-09-01T01:13:29.255Z,13.1
2018-09-01T01:14:28.459Z,13.1
2018-09-01T01:15:27.766Z,13.1
2018-09-01T01:15:58.398Z,13.1
2018-09-01T01:16:28.712Z,13.1
2018-09-01T01:17:26.408Z,13.1
2018-09-01T01:19:24.724Z,13.1
2018-09-01T01:20:23.932Z,13.1
2018-09-01T01:21:23.353Z,13.1
2018-09-01T01:22:22.662Z,13.1
2018-09-01T01:24:20.753Z,13
2018-09-01T01:25:20.182Z,13.1
2018-09-01T01:26:19.281Z,13.1
2018-09-01T01:27:18.485Z,13.1
2018-09-01T01:28:17.907Z,13
2018-09-01T01:29:17.218Z,13
2018-09-01T01:30:16.632Z,13
2018-09-01T01:31:15.729Z,13
2018-09-01T01:32:15.036Z,13
2018-09-01T01:33:13.959Z,13
2018-09-01T01:34:13.325Z,13
2018-09-01T01:35:12.749Z,12.9
2018-09-01T01:36:11.707Z,12.9
2018-09-01T01:37:11.021Z,12.9
2018-09-01T01:38:10.440Z,12.9
2018-09-01T01:39:09.643Z,12.9
2018-09-01T01:40:08.493Z,12.9
2018-09-01T01:41:07.702Z,12.9
2018-09-01T01:42:06.905Z,12.9
2018-09-01T01:43:06.227Z,12.9
2018-09-01T01:44:05.328Z,12.9
2018-09-01T01:44:35.956Z,12.9
2018-09-01T01:45:06.689Z,12.9
2018-09-01T01:45:36.915Z,12.9
2018-09-01T01:46:07.329Z,12.9
2018-09-01T01:46:37.845Z,12.9
2018-09-01T01:47:08.466Z,12.9
2018-09-01T01:47:38.984Z,12.9
2018-09-01T01:49:01.340Z,12.9
2018-09-01T01:50:00.838Z,12.9
2018-09-01T01:51:00.057Z,12.9
2018-09-01T01:51:59.376Z,12.8
2018-09-01T01:52:58.701Z,12.8
2018-09-01T01:53:58.019Z,12.8
2018-09-01T01:55:56.218Z,12.8
2018-09-01T01:56:55.426Z,12.8
2018-09-01T01:57:26.167Z,12.8
2018-09-01T01:57:56.198Z,12.8
2018-09-01T01:58:26.724Z,12.8
2018-09-01T01:58:57.454Z,12.8
2018-09-01T01:59:27.470Z,12.8
2018-09-01T02:00:52.553Z,12.8
2018-09-01T02:01:51.268Z,12.8
2018-09-01T02:02:51.089Z,12.8
2018-09-01T02:03:49.686Z,12.8
2018-09-01T02:04:49.502Z,12.8
2018-09-01T02:05:48.711Z,12.8
2018-09-01T02:06:47.576Z,12.7
2018-09-01T02:07:46.889Z,12.7
2018-09-01T02:08:46.188Z,12.7
2018-09-01T02:09:45.511Z,12.7
2018-09-01T02:10:44.921Z,12.6
2018-09-01T02:11:43.736Z,12.6
2018-09-01T02:12:42.936Z,12.6
2018-09-01T02:14:41.658Z,12.6
2018-09-01T02:16:39.860Z,12.5
2018-09-01T02:17:39.342Z,12.5
2018-09-01T02:18:37.941Z,12.5
2018-09-01T02:19:37.760Z,12.5
2018-09-01T02:20:36.752Z,12.5
2018-09-01T02:21:36.072Z,12.5
2018-09-01T02:22:35.495Z,12.5
2018-09-01T02:24:33.688Z,12.5
2018-09-01T02:25:32.780Z,12.5
2018-09-01T02:26:31.994Z,12.5
2018-09-01T02:28:30.798Z,12.5
2018-09-01T02:29:01.323Z,12.5
2018-09-01T02:29:32.059Z,12.5
2018-09-01T02:30:28.860Z,12.5
2018-09-01T02:31:27.972Z,12.5
2018-09-01T02:32:27.185Z,12.5
2018-09-01T02:33:26.617Z,12.5
2018-09-01T02:34:25.849Z,12.5
2018-09-01T02:35:25.271Z,12.5
2018-09-01T02:36:24.584Z,12.5
2018-09-01T02:37:23.403Z,12.5
2018-09-01T02:37:54.028Z,12.5
2018-09-01T02:38:24.723Z,12.5
2018-09-01T02:38:55.364Z,12.5
2018-09-01T02:39:25.935Z,12.5
2018-09-01T02:39:56.571Z,12.5
2018-09-01T02:40:27.303Z,12.5
2018-09-01T02:41:20.478Z,12.5
2018-09-01T02:42:19.824Z,12.5
2018-09-01T02:43:19.262Z,12.5
2018-09-01T02:44:18.200Z,12.5
2018-09-01T02:45:17.418Z,12.5
2018-09-01T02:46:16.650Z,12.5
2018-09-01T02:47:15.981Z,12.5
2018-09-01T02:48:14.925Z,12.4
2018-09-01T02:49:14.374Z,12.4
2018-09-01T02:50:13.319Z,12.4
2018-09-01T02:51:12.663Z,12.4
2018-09-01T02:52:11.787Z,12.4
2018-09-01T02:53:11.118Z,12.3
2018-09-01T02:54:10.232Z,12.3
2018-09-01T02:55:09.453Z,12.3
2018-09-01T02:56:08.586Z,12.3
2018-09-01T02:57:07.807Z,12.3
2018-09-01T02:58:07.145Z,12.3
2018-09-01T02:59:06.482Z,12.3
2018-09-01T03:00:05.697Z,12.3
2018-09-01T03:01:05.027Z,12.3
2018-09-01T03:02:03.856Z,12.3
2018-09-01T03:03:03.079Z,12.2
2018-09-01T03:04:02.523Z,12.2
2018-09-01T03:05:01.755Z,12.2
2018-09-01T03:06:00.980Z,12.2
2018-09-01T03:07:00.319Z,12.1
2018-09-01T03:07:59.144Z,12.1
2018-09-01T03:08:58.357Z,12.1
2018-09-01T03:09:57.803Z,12.1
2018-09-01T03:10:56.922Z,12.1
2018-09-01T03:11:56.365Z,12.1
2018-09-01T03:12:55.079Z,12.1
2018-09-01T03:13:54.309Z,12.1
2018-09-01T03:14:53.753Z,12.1
2018-09-01T03:15:53.189Z,12.1
2018-09-01T03:16:52.315Z,12
2018-09-01T03:17:51.640Z,12
2018-09-01T03:18:50.584Z,12
2018-09-01T03:19:49.826Z,12
2018-09-01T03:20:49.049Z,12
2018-09-01T03:21:48.500Z,12
2018-09-01T03:22:47.436Z,12
2018-09-01T03:23:17.481Z,12
2018-09-01T03:23:48.120Z,12
2018-09-01T03:24:18.450Z,12
2018-09-01T03:24:49.201Z,11.9
2018-09-01T03:25:19.524Z,11.9
2018-09-01T03:26:44.413Z,11.9
2018-09-01T03:27:43.633Z,11.9
2018-09-01T03:28:42.958Z,11.9
2018-09-01T03:29:41.684Z,11.9
2018-09-01T03:30:41.155Z,11.9
2018-09-01T03:31:40.602Z,11.9
2018-09-01T03:32:39.722Z,11.8
2018-09-01T03:33:10.262Z,11.8
2018-09-01T03:33:40.800Z,11.9
2018-09-01T03:34:11.576Z,11.9
2018-09-01T03:34:41.612Z,11.9
2018-09-01T03:35:12.361Z,11.9
2018-09-01T03:35:42.505Z,11.8
2018-09-01T03:36:12.937Z,11.8
2018-09-01T03:37:35.919Z,11.8
2018-09-01T03:38:34.749Z,11.8
2018-09-01T03:39:34.081Z,11.8
2018-09-01T03:40:33.429Z,11.8
2018-09-01T03:41:32.769Z,11.9
2018-09-01T03:42:31.490Z,11.8
2018-09-01T03:43:30.612Z,11.8
2018-09-01T03:44:29.959Z,11.8
2018-09-01T03:45:29.404Z,11.8
2018-09-01T03:46:28.625Z,11.8
2018-09-01T03:47:27.739Z,11.8
2018-09-01T03:48:27.127Z,11.8
2018-09-01T03:49:25.851Z,11.8
2018-09-01T03:50:25.581Z,11.8
2018-09-01T03:51:24.503Z,11.8
2018-09-01T03:52:23.832Z,11.8
2018-09-01T03:54:22.192Z,11.7
2018-09-01T03:55:21.529Z,11.7
2018-09-01T03:56:20.757Z,11.7
2018-09-01T03:58:18.871Z,11.7
2018-09-01T03:59:18.316Z,11.7
2018-09-01T04:00:17.569Z,11.7
2018-09-01T04:01:16.689Z,11.7
2018-09-01T04:03:14.788Z,11.7
2018-09-01T04:03:45.441Z,11.7
2018-09-01T04:04:15.978Z,11.7
2018-09-01T04:04:46.648Z,11.7
2018-09-01T04:05:16.787Z,11.7
2018-09-01T04:05:47.433Z,11.7
2018-09-01T04:06:18.173Z,11.7
2018-09-01T04:06:48.100Z,11.7
2018-09-01T04:08:11.090Z,11.7
2018-09-01T04:09:10.324Z,11.7
2018-09-01T04:10:09.439Z,11.6
2018-09-01T04:11:08.871Z,11.6
2018-09-01T04:12:08.203Z,11.6
2018-09-01T04:13:06.835Z,11.6
2018-09-01T04:13:37.488Z,11.6
2018-09-01T04:14:08.176Z,11.6
2018-09-01T04:14:38.715Z,11.6
2018-09-01T04:15:09.371Z,11.6
2018-09-01T04:15:39.515Z,11.6
2018-09-01T04:16:10.153Z,11.6
2018-09-01T04:16:40.799Z,11.6
2018-09-01T04:17:11.437Z,11.6
2018-09-01T04:17:41.977Z,11.6
2018-09-01T04:19:02.442Z,11.6
2018-09-01T04:20:01.564Z,11.6
2018-09-01T04:21:59.786Z,11.5
2018-09-01T04:22:59.221Z,11.5
2018-09-01T04:23:58.554Z,11.5
2018-09-01T04:24:57.480Z,11.5
2018-09-01T04:25:56.828Z,11.5
2018-09-01T04:26:56.164Z,11.5
2018-09-01T04:27:55.095Z,11.5
2018-09-01T04:28:54.537Z,11.5
2018-09-01T04:29:53.476Z,11.5
2018-09-01T04:30:52.496Z,11.5
2018-09-01T04:31:52.072Z,11.5
2018-09-01T04:32:51.090Z,11.5
2018-09-01T04:34:49.249Z,11.5
2018-09-01T04:35:48.475Z,11.5
2018-09-01T04:36:47.696Z,11.5
2018-09-01T04:37:47.036Z,11.4
2018-09-01T04:38:46.362Z,11.4
2018-09-01T04:39:45.483Z,11.4
2018-09-01T04:40:44.812Z,11.4
2018-09-01T04:41:44.141Z,11.4
2018-09-01T04:42:43.487Z,11.4
2018-09-01T04:43:42.419Z,11.4
2018-09-01T04:44:41.532Z,11.4
2018-09-01T04:45:40.974Z,11.4
2018-09-01T04:46:11.233Z,11.4
2018-09-01T04:46:41.471Z,11.4
2018-09-01T04:47:11.937Z,11.4
2018-09-01T04:48:38.342Z,11.4
2018-09-01T04:49:37.866Z,11.4
2018-09-01T04:50:36.703Z,11.4
2018-09-01T04:51:35.725Z,11.4
2018-09-01T04:52:35.053Z,11.4
2018-09-01T04:53:34.178Z,11.4
2018-09-01T04:54:33.621Z,11.4
2018-09-01T04:55:33.072Z,11.4
2018-09-01T04:56:32.066Z,11.5
2018-09-01T04:57:02.214Z,11.5
2018-09-01T04:57:32.886Z,11.5
2018-09-01T04:58:30.107Z,11.5
2018-09-01T04:59:29.555Z,11.5
2018-09-01T05:00:28.672Z,11.5
2018-09-01T05:01:29.076Z,11.5
2018-09-01T05:01:58.145Z,11.5
2018-09-01T05:02:28.575Z,11.5
2018-09-01T05:03:26.181Z,11.5
2018-09-01T05:04:25.323Z,11.5
2018-09-01T05:05:24.677Z,11.5
2018-09-01T05:07:22.994Z,11.5
2018-09-01T05:10:20.491Z,11.5
2018-09-01T05:11:19.718Z,11.5
2018-09-01T05:12:18.828Z,11.5
2018-09-01T05:13:17.841Z,11.5
2018-09-01T05:14:17.789Z,11.5
2018-09-01T05:15:16.615Z,11.5
2018-09-01T05:16:15.893Z,11.5
2018-09-01T05:18:14.004Z,11.6
2018-09-01T05:20:12.410Z,11.5
2018-09-01T05:21:12.199Z,11.5
2018-09-01T05:22:10.816Z,11.5
2018-09-01T05:23:10.047Z,11.5
2018-09-01T05:24:09.481Z,11.5
2018-09-01T05:25:08.914Z,11.5
2018-09-01T05:27:06.912Z,11.5
2018-09-01T05:28:06.239Z,11.5
2018-09-01T05:29:05.577Z,11.5
2018-09-01T05:31:03.792Z,11.5
2018-09-01T05:32:02.909Z,11.5
2018-09-01T05:33:02.230Z,11.5
2018-09-01T05:35:00.957Z,11.6
2018-09-01T05:37:58.553Z,11.6
2018-09-01T05:38:57.878Z,11.6
2018-09-01T05:39:56.600Z,11.6
2018-09-01T05:40:55.821Z,11.6
2018-09-01T05:41:26.257Z,11.6
2018-09-01T05:41:56.909Z,11.6
2018-09-01T05:42:27.554Z,11.6
2018-09-01T05:43:53.561Z,11.7
2018-09-01T05:44:52.896Z,11.7
2018-09-01T05:45:51.612Z,11.7
2018-09-01T05:46:50.866Z,11.7
2018-09-01T05:47:49.981Z,11.8
2018-09-01T05:48:48.995Z,11.8
2018-09-01T05:49:48.826Z,11.8
2018-09-01T05:50:48.309Z,11.8
2018-09-01T05:51:18.536Z,11.8
2018-09-01T05:52:46.440Z,11.8
2018-09-01T05:53:45.558Z,11.8
2018-09-01T05:54:45.001Z,11.8
2018-09-01T05:55:43.825Z,11.8
2018-09-01T05:56:43.063Z,11.9
2018-09-01T05:57:42.490Z,11.9
2018-09-01T05:58:41.616Z,11.9
2018-09-01T05:59:40.936Z,11.9
2018-09-01T06:00:40.557Z,11.9
2018-09-01T06:01:38.697Z,11.9
2018-09-01T06:02:38.416Z,11.9
2018-09-01T06:03:37.861Z,11.9
2018-09-01T06:04:36.686Z,11.9
2018-09-01T06:05:35.807Z,11.9
2018-09-01T06:06:35.055Z,11.9
2018-09-01T06:07:34.493Z,11.9
2018-09-01T06:08:33.435Z,11.9
2018-09-01T06:10:31.723Z,11.9
2018-09-01T06:11:31.057Z,11.9
2018-09-01T06:12:30.071Z,11.9
2018-09-01T06:13:29.497Z,11.9
2018-09-01T06:14:28.626Z,11.9
2018-09-01T06:15:27.851Z,11.9
2018-09-01T06:16:26.860Z,11.9
2018-09-01T06:17:26.275Z,11.9
2018-09-01T06:18:25.533Z,11.9
2018-09-01T06:19:24.767Z,11.9
2018-09-01T06:20:24.101Z,11.9
2018-09-01T06:21:23.319Z,11.9
2018-09-01T06:22:22.648Z,11.9
2018-09-01T06:22:53.288Z,11.9
2018-09-01T06:25:20.093Z,12
2018-09-01T06:26:19.419Z,12
2018-09-01T06:27:18.244Z,12.1
2018-09-01T06:28:17.576Z,12.1
2018-09-01T06:29:16.588Z,12.1
2018-09-01T06:33:13.577Z,12.1
2018-09-01T06:33:44.218Z,12.1
2018-09-01T06:35:12.019Z,12.1
2018-09-01T06:36:11.032Z,12.1
2018-09-01T06:37:10.256Z,12.1
2018-09-01T06:38:09.584Z,12.1
2018-09-01T06:39:08.910Z,12.2
2018-09-01T06:40:08.245Z,12.2
2018-09-01T06:41:07.069Z,12.2
2018-09-01T06:42:06.404Z,12.2
2018-09-01T06:43:06.490Z,12.3
2018-09-01T06:44:04.900Z,12.3
2018-09-01T06:45:04.133Z,12.3
2018-09-01T06:46:03.358Z,12.4
2018-09-01T06:47:02.588Z,12.4
2018-09-01T06:48:01.812Z,12.5
2018-09-01T06:49:59.933Z,12.5
2018-09-01T06:50:59.057Z,12.6
2018-09-01T06:51:58.491Z,12.6
2018-09-01T06:52:57.818Z,12.7
2018-09-01T06:53:57.146Z,12.7
2018-09-01T06:54:56.468Z,12.7
2018-09-01T06:55:55.404Z,12.8
2018-09-01T06:56:54.840Z,12.8
2018-09-01T06:57:53.667Z,12.8
2018-09-01T06:58:52.998Z,12.8
2018-09-01T06:59:52.331Z,12.9
2018-09-01T07:00:22.982Z,12.9
2018-09-01T07:00:53.514Z,12.9
2018-09-01T07:01:50.843Z,12.9
2018-09-01T07:02:49.962Z,12.9
2018-09-01T07:03:49.093Z,13
2018-09-01T07:04:48.531Z,13.1
2018-09-01T07:05:47.044Z,13.1
2018-09-01T07:06:46.977Z,13.1
2018-09-01T07:07:46.099Z,13.1
2018-09-01T07:08:45.537Z,13.1
2018-09-01T07:09:44.360Z,13.2
2018-09-01T07:10:43.801Z,13.2
2018-09-01T07:11:43.125Z,13.2
2018-09-01T07:12:42.076Z,13.2
2018-09-01T07:13:41.462Z,13.3
2018-09-01T07:14:40.791Z,13.3
2018-09-01T07:15:39.512Z,13.3
2018-09-01T07:16:39.125Z,13.4
2018-09-01T07:17:38.252Z,13.5
2018-09-01T07:18:37.359Z,13.5
2018-09-01T07:20:35.978Z,13.6
2018-09-01T07:22:34.590Z,13.6
2018-09-01T07:23:33.804Z,13.7
2018-09-01T07:24:32.527Z,13.7
2018-09-01T07:25:31.966Z,13.7
2018-09-01T07:26:31.298Z,13.7
2018-09-01T07:27:30.643Z,13.7
2018-09-01T07:28:29.474Z,13.8
2018-09-01T07:29:28.814Z,13.8
2018-09-01T07:30:29.452Z,13.8
2018-09-01T07:31:31.546Z,13.9
2018-09-01T07:32:26.818Z,13.9
2018-09-01T07:33:25.324Z,14
2018-09-01T07:34:25.060Z,14.1
2018-09-01T07:35:24.503Z,14.1
2018-09-01T07:36:23.232Z,14.2
2018-09-01T07:37:22.562Z,14.2
2018-09-01T07:38:21.795Z,14.2
2018-09-01T07:39:21.125Z,14.2
2018-09-01T07:40:20.565Z,14.2
2018-09-01T07:41:19.786Z,14.2
2018-09-01T07:42:19.116Z,14.3
2018-09-01T07:43:18.450Z,14.3
2018-09-01T07:44:17.451Z,14.4
2018-09-01T07:45:16.775Z,14.4
2018-09-01T07:46:16.102Z,14.5
2018-09-01T07:47:15.430Z,14.5
2018-09-01T07:48:14.144Z,14.5
2018-09-01T07:49:13.387Z,14.5
2018-09-01T07:50:12.731Z,14.5
2018-09-01T07:51:12.056Z,14.6
2018-09-01T07:52:11.380Z,14.7
2018-09-01T07:53:10.698Z,14.7
2018-09-01T07:53:41.341Z,14.7
2018-09-01T07:55:09.153Z,14.8
2018-09-01T07:56:09.477Z,14.8
2018-09-01T07:57:07.601Z,14.8
2018-09-01T07:58:06.963Z,14.8
2018-09-01T07:59:06.307Z,14.8
2018-09-01T07:59:36.947Z,14.8
2018-09-01T08:00:07.487Z,14.8
2018-09-01T08:00:38.153Z,14.8
2018-09-01T08:01:08.696Z,14.8
2018-09-01T08:02:04.113Z,14.8
2018-09-01T08:03:02.720Z,14.9
2018-09-01T08:04:02.349Z,14.9
2018-09-01T08:05:01.464Z,14.9
2018-09-01T08:06:00.806Z,15
2018-09-01T08:07:00.029Z,15
2018-09-01T08:07:59.358Z,15
2018-09-01T08:09:58.178Z,15
2018-09-01T08:10:28.311Z,15
2018-09-01T08:10:59.059Z,15
2018-09-01T08:11:29.206Z,15
2018-09-01T08:11:59.865Z,15.1
2018-09-01T08:12:30.510Z,15.1
2018-09-01T08:13:55.943Z,15.1
2018-09-01T08:14:54.281Z,15.1
2018-09-01T08:15:53.615Z,15.1
2018-09-01T08:16:52.946Z,15.1
2018-09-01T08:17:51.885Z,15.1
2018-09-01T08:18:51.118Z,15.1
2018-09-01T08:19:50.559Z,15.1
2018-09-01T08:20:49.886Z,15.1
2018-09-01T08:21:49.108Z,15.2
2018-09-01T08:22:48.331Z,15.2
2018-09-01T08:23:47.551Z,15.3
2018-09-01T08:24:46.886Z,15.3
2018-09-01T08:25:46.215Z,15.3
2018-09-01T08:26:45.545Z,15.3
2018-09-01T08:27:44.776Z,15.4
2018-09-01T08:28:44.155Z,15.4
2018-09-01T08:29:42.983Z,15.4
2018-09-01T08:30:42.409Z,15.4
2018-09-01T08:31:41.529Z,15.4
2018-09-01T08:32:40.863Z,15.5
2018-09-01T08:34:39.366Z,15.6
2018-09-01T08:35:38.477Z,15.6
2018-09-01T08:36:38.096Z,15.7
2018-09-01T08:37:37.318Z,15.7
2018-09-01T08:38:36.656Z,15.8
2018-09-01T08:39:35.985Z,15.9
2018-09-01T08:40:34.942Z,15.9
2018-09-01T08:41:34.279Z,16
2018-09-01T08:42:33.297Z,16.1
2018-09-01T08:43:32.795Z,16.1
2018-09-01T08:44:32.219Z,16.1
2018-09-01T08:45:31.452Z,16.1
2018-09-01T08:46:30.900Z,16.1
2018-09-01T08:47:30.239Z,16.1
2018-09-01T08:48:28.948Z,16.1
2018-09-01T08:49:28.773Z,16.1
2018-09-01T08:50:28.107Z,16.1
2018-09-01T08:51:27.038Z,16.1
2018-09-01T08:52:26.367Z,16.1
2018-09-01T08:53:25.701Z,16.1
2018-09-01T08:53:56.338Z,16.1
2018-09-01T08:55:24.247Z,16.2
2018-09-01T08:57:22.756Z,16.2
2018-09-01T08:58:22.198Z,16.3
2018-09-01T08:59:21.525Z,16.3
2018-09-01T09:00:20.654Z,16.3
2018-09-01T09:01:19.768Z,16.3
2018-09-01T09:02:19.002Z,16.4
2018-09-01T09:03:18.620Z,16.4
2018-09-01T09:04:17.839Z,16.4
2018-09-01T09:05:17.060Z,16.4
2018-09-01T09:06:16.290Z,16.4
2018-09-01T09:07:15.632Z,16.5
2018-09-01T09:08:14.647Z,16.5
2018-09-01T09:09:14.091Z,16.6
2018-09-01T09:10:13.521Z,16.6
2018-09-01T09:11:12.743Z,16.7
2018-09-01T09:12:12.075Z,16.7
2018-09-01T09:13:11.410Z,16.8
2018-09-01T09:14:10.527Z,16.9
2018-09-01T09:15:09.855Z,16.9
2018-09-01T09:16:09.305Z,17
2018-09-01T09:17:08.741Z,17.1
2018-09-01T09:18:08.075Z,17.2
2018-09-01T09:19:07.207Z,17.3
2018-09-01T09:20:06.424Z,17.3
2018-09-01T09:21:05.547Z,17.3
2018-09-01T09:22:04.774Z,17.3
2018-09-01T09:23:04.241Z,17.3
2018-09-01T09:24:03.470Z,17.3
2018-09-01T09:25:02.704Z,17.3
2018-09-01T09:26:02.040Z,17.4
2018-09-01T09:27:01.381Z,17.4
2018-09-01T09:28:00.716Z,17.4
2018-09-01T09:29:00.042Z,17.5
2018-09-01T09:29:59.368Z,17.5
2018-09-01T09:30:29.844Z,17.5
2018-09-01T09:31:00.367Z,17.4
2018-09-01T09:31:30.913Z,17.4
2018-09-01T09:32:01.448Z,17.4
2018-09-01T09:32:31.982Z,17.4
2018-09-01T09:33:02.304Z,17.3
2018-09-01T09:33:56.609Z,17.3
2018-09-01T09:34:55.836Z,17.3
2018-09-01T09:35:54.956Z,17.3
2018-09-01T09:36:54.466Z,17.4
2018-09-01T09:37:53.797Z,17.4
2018-09-01T09:38:53.014Z,17.4
2018-09-01T09:39:52.817Z,17.5
2018-09-01T09:40:51.628Z,17.5
2018-09-01T09:41:51.395Z,17.6
2018-09-01T09:42:50.669Z,17.6
2018-09-01T09:43:49.791Z,17.8
2018-09-01T09:44:49.030Z,17.8
2018-09-01T09:45:48.264Z,17.9
2018-09-01T09:46:47.706Z,17.9
2018-09-01T09:47:46.826Z,18.1
2018-09-01T09:48:46.274Z,18.1
2018-09-01T09:49:45.609Z,18.1
2018-09-01T09:50:44.827Z,18.1
2018-09-01T09:51:44.048Z,18.1
2018-09-01T09:52:43.373Z,18.2
2018-09-01T09:53:42.495Z,18.2
2018-09-01T09:54:42.123Z,18.2
2018-09-01T09:55:41.346Z,18.3
2018-09-01T09:56:41.192Z,18.3
2018-09-01T09:57:39.802Z,18.3
2018-09-01T09:58:39.653Z,18.3
2018-09-01T09:59:38.994Z,18.4
2018-09-01T10:00:38.422Z,18.4
2018-09-01T10:01:37.653Z,18.3
2018-09-01T10:02:36.988Z,18.2
2018-09-01T10:04:35.604Z,18.2
2018-09-01T10:05:35.763Z,18.1
2018-09-01T10:06:33.957Z,18.1
2018-09-01T10:07:33.577Z,18.1
2018-09-01T10:08:32.921Z,18.1
2018-09-01T10:09:32.245Z,18.2
2018-09-01T10:10:31.478Z,18.1
2018-09-01T10:11:30.908Z,18.2
2018-09-01T10:12:30.133Z,18.2
2018-09-01T10:13:00.555Z,18.2
2018-09-01T10:13:31.204Z,18.2
2018-09-01T10:14:01.843Z,18.2
2018-09-01T10:14:32.592Z,18.3
2018-09-01T10:15:27.692Z,18.4
2018-09-01T10:16:27.541Z,18.4
2018-09-01T10:17:26.988Z,18.5
2018-09-01T10:18:26.428Z,18.5
2018-09-01T10:19:24.941Z,18.5
2018-09-01T10:20:25.443Z,18.5
2018-09-01T10:21:24.302Z,18.5
2018-09-01T10:22:23.765Z,18.5
2018-09-01T10:23:22.477Z,18.5
2018-09-01T10:24:22.206Z,18.6
2018-09-01T10:25:21.647Z,18.6
2018-09-01T10:26:20.765Z,18.6
2018-09-01T10:27:20.110Z,18.7
2018-09-01T10:28:19.222Z,18.8
2018-09-01T10:29:18.442Z,18.8
2018-09-01T10:30:18.283Z,18.8
2018-09-01T10:31:17.604Z,18.7
2018-09-01T10:32:16.724Z,18.7
2018-09-01T10:32:47.259Z,18.7
2018-09-01T10:33:17.911Z,18.7
2018-09-01T10:33:48.553Z,18.7
2018-09-01T10:35:15.090Z,18.7
2018-09-01T10:36:13.929Z,18.8
2018-09-01T10:37:13.548Z,18.9
2018-09-01T10:38:12.777Z,19
2018-09-01T10:39:11.892Z,19
2018-09-01T10:40:11.506Z,19.2
2018-09-01T10:41:10.726Z,19.2
2018-09-01T10:42:09.633Z,19.2
2018-09-01T10:43:09.494Z,19.3
2018-09-01T10:44:08.951Z,19.4
2018-09-01T10:45:08.061Z,19.3
2018-09-01T10:46:07.291Z,19.3
2018-09-01T10:47:07.129Z,19.2
2018-09-01T10:48:06.681Z,19.3
2018-09-01T10:49:05.544Z,19.2
2018-09-01T10:50:04.560Z,19.3
2018-09-01T10:51:04.072Z,19.2
2018-09-01T10:52:03.795Z,19.2
2018-09-01T10:53:02.922Z,19.2
2018-09-01T10:54:02.044Z,19.2
2018-09-01T10:55:01.773Z,19.2
2018-09-01T10:56:01.103Z,19.2
2018-09-01T10:57:00.432Z,19.3
2018-09-01T10:57:59.644Z,19.2
2018-09-01T10:59:00.899Z,19.2
2018-09-01T10:59:58.673Z,19.2
2018-09-01T11:00:58.117Z,19.2
2018-09-01T11:01:57.442Z,19.1
2018-09-01T11:02:56.766Z,19.2
2018-09-01T11:03:56.105Z,19.2
2018-09-01T11:04:55.440Z,19.2
2018-09-01T11:05:54.553Z,19.1
2018-09-01T11:06:53.888Z,19.1
2018-09-01T11:07:53.613Z,19.1
2018-09-01T11:08:52.749Z,19.2
2018-09-01T11:09:23.495Z,19.2
2018-09-01T11:09:53.633Z,19.1
2018-09-01T11:10:24.486Z,19.1
2018-09-01T11:10:54.752Z,19.1
2018-09-01T11:11:24.683Z,19.1
2018-09-01T11:11:55.241Z,19.2
2018-09-01T11:12:50.137Z,19.2
2018-09-01T11:13:49.323Z,19.3
2018-09-01T11:14:49.270Z,19.4
2018-09-01T11:15:48.273Z,19.3
2018-09-01T11:16:47.496Z,19.4
2018-09-01T11:17:47.448Z,19.3
2018-09-01T11:18:46.443Z,19.4
2018-09-01T11:19:45.448Z,19.4
2018-09-01T11:20:45.417Z,19.4
2018-09-01T11:21:44.704Z,19.4
2018-09-01T11:22:43.950Z,19.4
2018-09-01T11:23:43.306Z,19.5
2018-09-01T11:24:42.631Z,19.5
2018-09-01T11:25:41.855Z,19.5
2018-09-01T11:26:41.687Z,19.5
2018-09-01T11:27:41.630Z,19.5
2018-09-01T11:28:40.060Z,19.6
2018-09-01T11:29:39.385Z,19.6
2018-09-01T11:30:39.111Z,19.5
2018-09-01T11:32:37.829Z,19.6
2018-09-01T11:33:36.991Z,19.6
2018-09-01T11:34:36.580Z,19.7
2018-09-01T11:35:36.041Z,19.7
2018-09-01T11:36:35.448Z,19.7
2018-09-01T11:38:33.567Z,19.8
2018-09-01T11:39:33.413Z,19.8
2018-09-01T11:40:32.849Z,19.8
2018-09-01T11:41:32.287Z,19.7
2018-09-01T11:42:32.015Z,19.7
2018-09-01T11:43:30.879Z,19.7
2018-09-01T11:44:30.218Z,19.7
2018-09-01T11:45:29.350Z,19.6
2018-09-01T11:46:28.581Z,19.6
2018-09-01T11:47:28.309Z,19.5
2018-09-01T11:48:27.905Z,19.5
2018-09-01T11:49:27.246Z,19.5
2018-09-01T11:50:26.581Z,19.5
2018-09-01T11:51:25.915Z,19.5
2018-09-01T11:52:25.243Z,19.6
2018-09-01T11:53:25.193Z,19.6
2018-09-01T11:53:54.808Z,19.6
2018-09-01T11:54:25.350Z,19.6
2018-09-01T11:55:23.300Z,19.7
2018-09-01T11:56:22.535Z,19.7
2018-09-01T11:57:21.868Z,19.7
2018-09-01T11:58:21.093Z,19.7
2018-09-01T11:59:20.925Z,19.7
2018-09-01T12:00:20.364Z,19.8
2018-09-01T12:01:19.503Z,19.8
2018-09-01T12:02:19.105Z,19.9
2018-09-01T12:03:18.145Z,19.9
2018-09-01T12:04:17.480Z,19.9
2018-09-01T12:05:16.818Z,19.9
2018-09-01T12:06:16.554Z,19.9
2018-09-01T12:07:15.778Z,19.9
2018-09-01T12:08:15.013Z,19.8
2018-09-01T12:09:15.521Z,19.8
2018-09-01T12:10:13.963Z,19.8
2018-09-01T12:11:13.204Z,19.7
2018-09-01T12:11:43.532Z,19.7
2018-09-01T12:12:14.061Z,19.7
2018-09-01T12:12:44.702Z,19.7
2018-09-01T12:14:11.610Z,19.7
2018-09-01T12:15:10.973Z,19.5
2018-09-01T12:16:10.090Z,19.5
2018-09-01T12:17:09.318Z,19.5
2018-09-01T12:18:08.933Z,19.5
2018-09-01T12:19:08.377Z,19.5
2018-09-01T12:20:07.705Z,19.5
2018-09-01T12:21:07.043Z,19.6
2018-09-01T12:23:05.863Z,19.6
2018-09-01T12:24:05.093Z,19.7
2018-09-01T12:25:04.215Z,19.7
2018-09-01T12:27:03.440Z,19.8
2018-09-01T12:28:02.585Z,19.8
2018-09-01T12:29:02.075Z,19.8
2018-09-01T12:30:01.196Z,19.8
2018-09-01T12:31:01.027Z,19.8
2018-09-01T12:32:00.466Z,19.9
2018-09-01T12:32:59.684Z,19.9
2018-09-01T12:33:59.131Z,19.9
2018-09-01T12:34:58.243Z,19.9
2018-09-01T12:35:57.964Z,19.9
2018-09-01T12:36:57.083Z,19.9
2018-09-01T12:37:56.414Z,19.9
2018-09-01T12:38:55.898Z,19.8
2018-09-01T12:39:55.133Z,19.8
2018-09-01T12:40:54.472Z,19.8
2018-09-01T12:41:54.673Z,19.7
2018-09-01T12:42:53.553Z,19.6
2018-09-01T12:43:52.987Z,19.6
2018-09-01T12:44:52.439Z,19.6
2018-09-01T12:45:51.660Z,19.6
2018-09-01T12:46:51.097Z,19.6
2018-09-01T12:47:50.213Z,19.6
2018-09-01T12:48:49.657Z,19.6
2018-09-01T12:49:49.096Z,19.6
2018-09-01T12:50:48.425Z,19.6
2018-09-01T12:51:47.648Z,19.6
2018-09-01T12:52:47.489Z,19.6
2018-09-01T12:53:46.711Z,19.6
2018-09-01T12:54:45.936Z,19.6
2018-09-01T12:56:44.327Z,19.6
2018-09-01T12:57:44.169Z,19.7
2018-09-01T12:58:43.607Z,19.7
2018-09-01T12:59:43.056Z,19.7
2018-09-01T13:00:42.736Z,19.7
2018-09-01T13:01:41.618Z,19.8
2018-09-01T13:02:40.945Z,19.8
2018-09-01T13:03:40.377Z,19.8
2018-09-01T13:04:39.712Z,19.8
2018-09-01T13:05:39.201Z,19.9
2018-09-01T13:06:38.499Z,19.9
2018-09-01T13:07:37.720Z,20
2018-09-01T13:08:37.557Z,20
2018-09-01T13:09:36.670Z,20